sensor_id;sensor_type;location;lat;lon;timestamp;P1;durP1;ratioP1;P2;durP2;ratioP2
1467;SDS011;727;48.892;9.544;2022-08-16T00:00:12;5.70;;;5.20;;
1467;SDS011;727;48.892;9.544;2022-08-16T00:02:41;5.03;;;4.63;;
1467;SDS011;727;48.892;9.544;2022-08-16T00:05:09;5.90;;;5.20;;
1467;SDS011;727;48.892;9.544;2022-08-16T00:07:37;5.17;;;4.60;;
1467;SDS011;727;48.892;9.544;2022-08-16T00:10:05;6.50;;;5.43;;
1467;SDS011;727;48.892;9.544;2022-08-16T00:12:34;5.13;;;4.63;;
1467;SDS011;727;48.892;9.544;2022-08-16T00:15:04;5.03;;;4.10;;
1467;SDS011;727;48.892;9.544;2022-08-16T00:17:35;5.87;;;5.37;;
1467;SDS011;727;48.892;9.544;2022-08-16T00:20:02;6.43;;;5.23;;
1467;SDS011;727;48.892;9.544;2022-08-16T00:22:33;5.20;;;4.73;;
1467;SDS011;727;48.892;9.544;2022-08-16T00:25:01;6.00;;;5.03;;
1467;SDS011;727;48.892;9.544;2022-08-16T00:27:28;4.70;;;4.30;;
1467;SDS011;727;48.892;9.544;2022-08-16T00:29:54;4.77;;;4.37;;
1467;SDS011;727;48.892;9.544;2022-08-16T00:32:22;7.83;;;5.30;;
1467;SDS011;727;48.892;9.544;2022-08-16T00:34:50;7.80;;;5.40;;
1467;SDS011;727;48.892;9.544;2022-08-16T00:37:17;5.40;;;5.00;;
1467;SDS011;727;48.892;9.544;2022-08-16T00:39:45;5.70;;;5.03;;
1467;SDS011;727;48.892;9.544;2022-08-16T00:42:12;5.00;;;4.60;;
1467;SDS011;727;48.892;9.544;2022-08-16T00:44:39;6.47;;;5.33;;
1467;SDS011;727;48.892;9.544;2022-08-16T00:47:11;6.53;;;5.47;;
1467;SDS011;727;48.892;9.544;2022-08-16T00:49:41;8.53;;;5.20;;
1467;SDS011;727;48.892;9.544;2022-08-16T00:52:09;5.63;;;5.00;;
1467;SDS011;727;48.892;9.544;2022-08-16T00:54:36;5.60;;;5.10;;
1467;SDS011;727;48.892;9.544;2022-08-16T00:57:03;5.30;;;4.80;;
1467;SDS011;727;48.892;9.544;2022-08-16T00:59:32;5.83;;;5.33;;
1467;SDS011;727;48.892;9.544;2022-08-16T01:02:03;6.23;;;5.73;;
1467;SDS011;727;48.892;9.544;2022-08-16T01:04:31;5.70;;;5.10;;
1467;SDS011;727;48.892;9.544;2022-08-16T01:07:00;7.00;;;6.30;;
1467;SDS011;727;48.892;9.544;2022-08-16T01:09:31;5.83;;;4.83;;
1467;SDS011;727;48.892;9.544;2022-08-16T01:12:05;6.90;;;6.20;;
1467;SDS011;727;48.892;9.544;2022-08-16T01:14:38;6.33;;;5.73;;
1467;SDS011;727;48.892;9.544;2022-08-16T01:17:07;5.43;;;5.03;;
1467;SDS011;727;48.892;9.544;2022-08-16T01:19:36;6.53;;;5.93;;
1467;SDS011;727;48.892;9.544;2022-08-16T01:22:09;5.93;;;5.33;;
1467;SDS011;727;48.892;9.544;2022-08-16T01:24:42;5.13;;;4.73;;
1467;SDS011;727;48.892;9.544;2022-08-16T01:27:12;5.87;;;5.30;;
1467;SDS011;727;48.892;9.544;2022-08-16T01:29:43;6.57;;;5.70;;
1467;SDS011;727;48.892;9.544;2022-08-16T01:32:13;5.60;;;5.10;;
1467;SDS011;727;48.892;9.544;2022-08-16T01:34:39;5.37;;;4.97;;
1467;SDS011;727;48.892;9.544;2022-08-16T01:37:08;6.30;;;5.53;;
1467;SDS011;727;48.892;9.544;2022-08-16T01:39:37;5.57;;;5.07;;
1467;SDS011;727;48.892;9.544;2022-08-16T01:42:06;5.20;;;4.80;;
1467;SDS011;727;48.892;9.544;2022-08-16T01:44:33;7.60;;;5.53;;
1467;SDS011;727;48.892;9.544;2022-08-16T01:47:01;6.90;;;5.03;;
1467;SDS011;727;48.892;9.544;2022-08-16T01:49:29;5.43;;;5.03;;
1467;SDS011;727;48.892;9.544;2022-08-16T01:51:59;5.77;;;5.17;;
1467;SDS011;727;48.892;9.544;2022-08-16T01:54:30;6.33;;;5.13;;
1467;SDS011;727;48.892;9.544;2022-08-16T01:56:58;5.90;;;5.40;;
1467;SDS011;727;48.892;9.544;2022-08-16T01:59:28;5.73;;;5.23;;
1467;SDS011;727;48.892;9.544;2022-08-16T02:01:55;5.20;;;4.80;;
1467;SDS011;727;48.892;9.544;2022-08-16T02:04:22;5.00;;;4.60;;
1467;SDS011;727;48.892;9.544;2022-08-16T02:06:50;8.50;;;5.50;;
1467;SDS011;727;48.892;9.544;2022-08-16T02:09:18;7.10;;;6.47;;
1467;SDS011;727;48.892;9.544;2022-08-16T02:11:47;5.73;;;5.30;;
1467;SDS011;727;48.892;9.544;2022-08-16T02:14:16;5.57;;;5.00;;
1467;SDS011;727;48.892;9.544;2022-08-16T02:16:44;12.20;;;5.00;;
1467;SDS011;727;48.892;9.544;2022-08-16T02:19:11;5.80;;;5.30;;
1467;SDS011;727;48.892;9.544;2022-08-16T02:21:38;7.50;;;5.90;;
1467;SDS011;727;48.892;9.544;2022-08-16T02:24:05;6.37;;;5.87;;
1467;SDS011;727;48.892;9.544;2022-08-16T02:26:32;7.80;;;5.70;;
1467;SDS011;727;48.892;9.544;2022-08-16T02:28:59;7.20;;;5.73;;
1467;SDS011;727;48.892;9.544;2022-08-16T02:31:26;6.17;;;5.73;;
1467;SDS011;727;48.892;9.544;2022-08-16T02:33:54;5.57;;;4.97;;
1467;SDS011;727;48.892;9.544;2022-08-16T02:36:21;5.17;;;4.77;;
1467;SDS011;727;48.892;9.544;2022-08-16T02:38:47;6.30;;;5.70;;
1467;SDS011;727;48.892;9.544;2022-08-16T02:41:14;6.00;;;5.47;;
1467;SDS011;727;48.892;9.544;2022-08-16T02:43:41;5.80;;;4.97;;
1467;SDS011;727;48.892;9.544;2022-08-16T02:46:07;6.77;;;6.07;;
1467;SDS011;727;48.892;9.544;2022-08-16T02:48:34;7.30;;;5.03;;
1467;SDS011;727;48.892;9.544;2022-08-16T02:51:04;5.37;;;4.83;;
1467;SDS011;727;48.892;9.544;2022-08-16T02:53:32;5.80;;;5.17;;
1467;SDS011;727;48.892;9.544;2022-08-16T02:56:00;5.67;;;5.17;;
1467;SDS011;727;48.892;9.544;2022-08-16T02:58:27;6.30;;;5.70;;
1467;SDS011;727;48.892;9.544;2022-08-16T03:00:56;6.73;;;5.43;;
1467;SDS011;727;48.892;9.544;2022-08-16T03:03:23;7.50;;;6.70;;
1467;SDS011;727;48.892;9.544;2022-08-16T03:05:51;5.73;;;5.33;;
1467;SDS011;727;48.892;9.544;2022-08-16T03:08:20;5.83;;;5.27;;
1467;SDS011;727;48.892;9.544;2022-08-16T03:10:48;5.83;;;5.33;;
1467;SDS011;727;48.892;9.544;2022-08-16T03:13:14;6.30;;;5.70;;
1467;SDS011;727;48.892;9.544;2022-08-16T03:15:41;6.33;;;5.70;;
1467;SDS011;727;48.892;9.544;2022-08-16T03:18:08;6.73;;;6.13;;
1467;SDS011;727;48.892;9.544;2022-08-16T03:20:35;7.03;;;6.50;;
1467;SDS011;727;48.892;9.544;2022-08-16T03:23:03;5.73;;;5.23;;
1467;SDS011;727;48.892;9.544;2022-08-16T03:25:31;6.80;;;6.10;;
1467;SDS011;727;48.892;9.544;2022-08-16T03:27:59;6.43;;;5.80;;
1467;SDS011;727;48.892;9.544;2022-08-16T03:30:26;5.50;;;5.00;;
1467;SDS011;727;48.892;9.544;2022-08-16T03:32:56;6.77;;;6.23;;
1467;SDS011;727;48.892;9.544;2022-08-16T03:35:24;7.03;;;6.07;;
1467;SDS011;727;48.892;9.544;2022-08-16T03:37:53;6.33;;;5.83;;
1467;SDS011;727;48.892;9.544;2022-08-16T03:40:21;9.13;;;6.80;;
1467;SDS011;727;48.892;9.544;2022-08-16T03:42:50;7.50;;;6.43;;
1467;SDS011;727;48.892;9.544;2022-08-16T03:45:17;7.73;;;5.87;;
1467;SDS011;727;48.892;9.544;2022-08-16T03:47:44;6.80;;;6.17;;
1467;SDS011;727;48.892;9.544;2022-08-16T03:50:12;6.33;;;5.73;;
1467;SDS011;727;48.892;9.544;2022-08-16T03:52:39;8.93;;;6.20;;
1467;SDS011;727;48.892;9.544;2022-08-16T03:55:07;5.60;;;5.10;;
1467;SDS011;727;48.892;9.544;2022-08-16T03:57:34;7.23;;;6.40;;
1467;SDS011;727;48.892;9.544;2022-08-16T04:00:04;6.60;;;6.10;;
1467;SDS011;727;48.892;9.544;2022-08-16T04:02:37;7.70;;;6.60;;
1467;SDS011;727;48.892;9.544;2022-08-16T04:05:04;6.50;;;6.00;;
1467;SDS011;727;48.892;9.544;2022-08-16T04:07:32;8.13;;;6.13;;
1467;SDS011;727;48.892;9.544;2022-08-16T04:09:58;6.90;;;6.30;;
1467;SDS011;727;48.892;9.544;2022-08-16T04:12:25;6.90;;;5.70;;
1467;SDS011;727;48.892;9.544;2022-08-16T04:14:52;6.90;;;6.30;;
1467;SDS011;727;48.892;9.544;2022-08-16T04:17:21;7.27;;;6.47;;
1467;SDS011;727;48.892;9.544;2022-08-16T04:19:47;7.60;;;6.47;;
1467;SDS011;727;48.892;9.544;2022-08-16T04:22:14;7.50;;;6.70;;
1467;SDS011;727;48.892;9.544;2022-08-16T04:24:41;8.97;;;8.00;;
1467;SDS011;727;48.892;9.544;2022-08-16T04:27:08;7.20;;;6.60;;
1467;SDS011;727;48.892;9.544;2022-08-16T04:29:35;8.00;;;7.20;;
1467;SDS011;727;48.892;9.544;2022-08-16T04:32:02;7.67;;;6.97;;
1467;SDS011;727;48.892;9.544;2022-08-16T04:34:32;7.33;;;6.63;;
1467;SDS011;727;48.892;9.544;2022-08-16T04:37:01;8.23;;;7.43;;
1467;SDS011;727;48.892;9.544;2022-08-16T04:39:29;7.77;;;6.97;;
1467;SDS011;727;48.892;9.544;2022-08-16T04:41:57;7.17;;;6.50;;
1467;SDS011;727;48.892;9.544;2022-08-16T04:44:23;7.07;;;6.13;;
1467;SDS011;727;48.892;9.544;2022-08-16T04:46:50;6.60;;;6.00;;
1467;SDS011;727;48.892;9.544;2022-08-16T04:49:17;7.07;;;6.57;;
1467;SDS011;727;48.892;9.544;2022-08-16T04:51:48;6.33;;;5.73;;
1467;SDS011;727;48.892;9.544;2022-08-16T04:54:15;7.53;;;5.13;;
1467;SDS011;727;48.892;9.544;2022-08-16T04:56:42;5.00;;;4.60;;
1467;SDS011;727;48.892;9.544;2022-08-16T04:59:09;5.67;;;4.47;;
1467;SDS011;727;48.892;9.544;2022-08-16T05:01:36;8.13;;;5.30;;
1467;SDS011;727;48.892;9.544;2022-08-16T05:04:03;6.03;;;4.47;;
1467;SDS011;727;48.892;9.544;2022-08-16T05:06:30;5.43;;;5.03;;
1467;SDS011;727;48.892;9.544;2022-08-16T05:08:58;5.27;;;4.83;;
1467;SDS011;727;48.892;9.544;2022-08-16T05:11:25;8.63;;;4.90;;
1467;SDS011;727;48.892;9.544;2022-08-16T05:13:53;5.50;;;5.10;;
1467;SDS011;727;48.892;9.544;2022-08-16T05:16:20;6.20;;;5.67;;
1467;SDS011;727;48.892;9.544;2022-08-16T05:18:50;6.17;;;5.13;;
1467;SDS011;727;48.892;9.544;2022-08-16T05:21:18;4.40;;;4.10;;
1467;SDS011;727;48.892;9.544;2022-08-16T05:23:45;4.47;;;4.03;;
1467;SDS011;727;48.892;9.544;2022-08-16T05:26:14;6.00;;;5.53;;
1467;SDS011;727;48.892;9.544;2022-08-16T05:28:40;5.20;;;4.27;;
1467;SDS011;727;48.892;9.544;2022-08-16T05:31:07;4.57;;;4.03;;
1467;SDS011;727;48.892;9.544;2022-08-16T05:33:34;4.33;;;3.87;;
1467;SDS011;727;48.892;9.544;2022-08-16T05:36:00;5.43;;;4.93;;
1467;SDS011;727;48.892;9.544;2022-08-16T05:38:27;4.67;;;4.17;;
1467;SDS011;727;48.892;9.544;2022-08-16T05:40:55;4.83;;;4.43;;
1467;SDS011;727;48.892;9.544;2022-08-16T05:43:24;6.03;;;4.50;;
1467;SDS011;727;48.892;9.544;2022-08-16T05:45:51;3.90;;;3.60;;
1467;SDS011;727;48.892;9.544;2022-08-16T05:48:18;6.80;;;5.33;;
1467;SDS011;727;48.892;9.544;2022-08-16T05:50:45;6.10;;;5.30;;
1467;SDS011;727;48.892;9.544;2022-08-16T05:53:12;6.07;;;5.57;;
1467;SDS011;727;48.892;9.544;2022-08-16T05:55:39;6.80;;;5.20;;
1467;SDS011;727;48.892;9.544;2022-08-16T05:58:05;5.80;;;5.20;;
1467;SDS011;727;48.892;9.544;2022-08-16T06:00:33;6.77;;;6.27;;
1467;SDS011;727;48.892;9.544;2022-08-16T06:03:01;6.70;;;6.00;;
1467;SDS011;727;48.892;9.544;2022-08-16T06:05:27;6.67;;;6.07;;
1467;SDS011;727;48.892;9.544;2022-08-16T06:07:54;6.33;;;5.83;;
1467;SDS011;727;48.892;9.544;2022-08-16T06:10:21;6.47;;;5.90;;
1467;SDS011;727;48.892;9.544;2022-08-16T06:12:48;5.87;;;5.37;;
1467;SDS011;727;48.892;9.544;2022-08-16T06:15:18;8.57;;;5.60;;
1467;SDS011;727;48.892;9.544;2022-08-16T06:17:47;6.93;;;6.27;;
1467;SDS011;727;48.892;9.544;2022-08-16T06:20:14;11.13;;;5.53;;
1467;SDS011;727;48.892;9.544;2022-08-16T06:22:42;7.00;;;6.40;;
1467;SDS011;727;48.892;9.544;2022-08-16T06:25:09;6.33;;;5.73;;
1467;SDS011;727;48.892;9.544;2022-08-16T06:27:36;8.00;;;7.20;;
1467;SDS011;727;48.892;9.544;2022-08-16T06:30:04;6.97;;;6.47;;
1467;SDS011;727;48.892;9.544;2022-08-16T06:32:32;7.30;;;6.37;;
1467;SDS011;727;48.892;9.544;2022-08-16T06:35:00;7.00;;;6.37;;
1467;SDS011;727;48.892;9.544;2022-08-16T06:37:26;9.03;;;6.17;;
1467;SDS011;727;48.892;9.544;2022-08-16T06:39:53;7.00;;;6.40;;
1467;SDS011;727;48.892;9.544;2022-08-16T06:42:20;7.17;;;6.57;;
1467;SDS011;727;48.892;9.544;2022-08-16T06:44:46;6.40;;;5.90;;
1467;SDS011;727;48.892;9.544;2022-08-16T06:47:13;9.07;;;6.60;;
1467;SDS011;727;48.892;9.544;2022-08-16T06:49:40;6.53;;;6.03;;
1467;SDS011;727;48.892;9.544;2022-08-16T06:52:08;7.03;;;6.13;;
1467;SDS011;727;48.892;9.544;2022-08-16T06:54:35;6.37;;;5.73;;
1467;SDS011;727;48.892;9.544;2022-08-16T06:57:02;6.30;;;5.50;;
1467;SDS011;727;48.892;9.544;2022-08-16T06:59:29;5.57;;;5.17;;
1467;SDS011;727;48.892;9.544;2022-08-16T07:01:56;6.00;;;5.60;;
1467;SDS011;727;48.892;9.544;2022-08-16T07:04:23;6.90;;;6.40;;
1467;SDS011;727;48.892;9.544;2022-08-16T07:06:50;7.60;;;6.20;;
1467;SDS011;727;48.892;9.544;2022-08-16T07:09:18;6.40;;;5.90;;
1467;SDS011;727;48.892;9.544;2022-08-16T07:11:45;7.57;;;6.87;;
1467;SDS011;727;48.892;9.544;2022-08-16T07:14:12;6.43;;;5.83;;
1467;SDS011;727;48.892;9.544;2022-08-16T07:16:38;6.27;;;5.87;;
1467;SDS011;727;48.892;9.544;2022-08-16T07:19:05;7.27;;;6.57;;
1467;SDS011;727;48.892;9.544;2022-08-16T07:21:32;7.33;;;6.77;;
1467;SDS011;727;48.892;9.544;2022-08-16T07:24:00;8.60;;;7.67;;
1467;SDS011;727;48.892;9.544;2022-08-16T07:26:28;7.03;;;6.40;;
1467;SDS011;727;48.892;9.544;2022-08-16T07:28:55;6.93;;;6.43;;
1467;SDS011;727;48.892;9.544;2022-08-16T07:31:22;6.60;;;5.90;;
1467;SDS011;727;48.892;9.544;2022-08-16T07:33:48;7.20;;;6.53;;
1467;SDS011;727;48.892;9.544;2022-08-16T07:36:16;7.63;;;6.77;;
1467;SDS011;727;48.892;9.544;2022-08-16T07:38:43;9.40;;;7.67;;
1467;SDS011;727;48.892;9.544;2022-08-16T07:41:10;6.87;;;6.33;;
1467;SDS011;727;48.892;9.544;2022-08-16T07:43:38;7.30;;;6.70;;
1467;SDS011;727;48.892;9.544;2022-08-16T07:46:05;7.90;;;7.20;;
1467;SDS011;727;48.892;9.544;2022-08-16T07:48:33;7.10;;;6.37;;
1467;SDS011;727;48.892;9.544;2022-08-16T07:51:00;7.00;;;6.40;;
1467;SDS011;727;48.892;9.544;2022-08-16T07:53:28;8.00;;;6.80;;
1467;SDS011;727;48.892;9.544;2022-08-16T07:55:56;6.23;;;5.63;;
1467;SDS011;727;48.892;9.544;2022-08-16T07:58:24;10.50;;;6.13;;
1467;SDS011;727;48.892;9.544;2022-08-16T08:00:53;6.50;;;5.90;;
1467;SDS011;727;48.892;9.544;2022-08-16T08:03:20;7.33;;;5.23;;
1467;SDS011;727;48.892;9.544;2022-08-16T08:05:47;5.70;;;5.30;;
1467;SDS011;727;48.892;9.544;2022-08-16T08:08:14;5.97;;;5.37;;
1467;SDS011;727;48.892;9.544;2022-08-16T08:10:40;6.20;;;5.70;;
1467;SDS011;727;48.892;9.544;2022-08-16T08:13:07;5.13;;;4.63;;
1467;SDS011;727;48.892;9.544;2022-08-16T08:15:34;5.40;;;5.00;;
1467;SDS011;727;48.892;9.544;2022-08-16T08:18:02;8.13;;;5.50;;
1467;SDS011;727;48.892;9.544;2022-08-16T08:20:29;5.30;;;4.90;;
1467;SDS011;727;48.892;9.544;2022-08-16T08:22:56;5.07;;;4.53;;
1467;SDS011;727;48.892;9.544;2022-08-16T08:25:24;5.13;;;4.73;;
1467;SDS011;727;48.892;9.544;2022-08-16T08:27:51;6.30;;;5.10;;
1467;SDS011;727;48.892;9.544;2022-08-16T08:30:18;7.20;;;6.10;;
1467;SDS011;727;48.892;9.544;2022-08-16T08:32:44;5.93;;;5.23;;
1467;SDS011;727;48.892;9.544;2022-08-16T08:35:12;6.40;;;5.80;;
1467;SDS011;727;48.892;9.544;2022-08-16T08:37:40;7.90;;;5.50;;
1467;SDS011;727;48.892;9.544;2022-08-16T08:40:08;5.30;;;4.90;;
1467;SDS011;727;48.892;9.544;2022-08-16T08:42:37;5.50;;;5.00;;
1467;SDS011;727;48.892;9.544;2022-08-16T08:45:05;5.53;;;5.03;;
1467;SDS011;727;48.892;9.544;2022-08-16T08:47:32;5.30;;;4.90;;
1467;SDS011;727;48.892;9.544;2022-08-16T08:49:59;5.47;;;5.07;;
1467;SDS011;727;48.892;9.544;2022-08-16T08:52:27;5.87;;;5.30;;
1467;SDS011;727;48.892;9.544;2022-08-16T08:54:54;5.77;;;5.20;;
1467;SDS011;727;48.892;9.544;2022-08-16T08:57:21;5.40;;;4.90;;
1467;SDS011;727;48.892;9.544;2022-08-16T08:59:48;5.80;;;5.40;;
1467;SDS011;727;48.892;9.544;2022-08-16T09:02:15;6.67;;;6.07;;
1467;SDS011;727;48.892;9.544;2022-08-16T09:04:42;6.10;;;5.10;;
1467;SDS011;727;48.892;9.544;2022-08-16T09:07:10;5.20;;;4.80;;
1467;SDS011;727;48.892;9.544;2022-08-16T09:09:38;5.40;;;4.90;;
1467;SDS011;727;48.892;9.544;2022-08-16T09:12:05;4.93;;;4.53;;
1467;SDS011;727;48.892;9.544;2022-08-16T09:14:33;5.83;;;4.90;;
1467;SDS011;727;48.892;9.544;2022-08-16T09:17:02;7.00;;;5.80;;
1467;SDS011;727;48.892;9.544;2022-08-16T09:19:29;6.30;;;5.70;;
1467;SDS011;727;48.892;9.544;2022-08-16T09:21:56;9.30;;;5.30;;
1467;SDS011;727;48.892;9.544;2022-08-16T09:24:23;5.40;;;5.00;;
1467;SDS011;727;48.892;9.544;2022-08-16T09:26:51;6.83;;;5.17;;
1467;SDS011;727;48.892;9.544;2022-08-16T09:29:18;5.67;;;5.17;;
1467;SDS011;727;48.892;9.544;2022-08-16T09:31:45;5.47;;;4.87;;
1467;SDS011;727;48.892;9.544;2022-08-16T09:34:12;8.93;;;5.63;;
1467;SDS011;727;48.892;9.544;2022-08-16T09:36:40;5.63;;;5.00;;
1467;SDS011;727;48.892;9.544;2022-08-16T09:39:07;7.43;;;5.37;;
1467;SDS011;727;48.892;9.544;2022-08-16T09:41:34;5.67;;;4.77;;
1467;SDS011;727;48.892;9.544;2022-08-16T09:44:03;7.33;;;5.43;;
1467;SDS011;727;48.892;9.544;2022-08-16T09:46:31;6.13;;;5.00;;
1467;SDS011;727;48.892;9.544;2022-08-16T09:48:57;5.70;;;4.70;;
1467;SDS011;727;48.892;9.544;2022-08-16T09:51:24;6.20;;;4.47;;
1467;SDS011;727;48.892;9.544;2022-08-16T09:53:52;4.10;;;3.80;;
1467;SDS011;727;48.892;9.544;2022-08-16T09:56:21;6.13;;;5.53;;
1467;SDS011;727;48.892;9.544;2022-08-16T09:58:51;4.90;;;4.50;;
1467;SDS011;727;48.892;9.544;2022-08-16T10:01:20;5.10;;;4.60;;
1467;SDS011;727;48.892;9.544;2022-08-16T10:03:46;4.93;;;4.63;;
1467;SDS011;727;48.892;9.544;2022-08-16T10:06:13;4.90;;;4.47;;
1467;SDS011;727;48.892;9.544;2022-08-16T10:08:40;6.33;;;4.93;;
1467;SDS011;727;48.892;9.544;2022-08-16T10:11:07;5.27;;;4.70;;
1467;SDS011;727;48.892;9.544;2022-08-16T10:13:51;5.13;;;4.50;;
1467;SDS011;727;48.892;9.544;2022-08-16T10:16:21;5.97;;;5.50;;
1467;SDS011;727;48.892;9.544;2022-08-16T10:18:48;5.17;;;4.67;;
1467;SDS011;727;48.892;9.544;2022-08-16T10:21:14;6.63;;;4.50;;
1467;SDS011;727;48.892;9.544;2022-08-16T10:23:42;6.70;;;4.63;;
1467;SDS011;727;48.892;9.544;2022-08-16T10:26:10;5.70;;;4.50;;
1467;SDS011;727;48.892;9.544;2022-08-16T10:28:38;6.13;;;4.80;;
1467;SDS011;727;48.892;9.544;2022-08-16T10:31:05;4.80;;;4.50;;
1467;SDS011;727;48.892;9.544;2022-08-16T10:33:35;5.00;;;4.50;;
1467;SDS011;727;48.892;9.544;2022-08-16T10:36:03;5.27;;;4.77;;
1467;SDS011;727;48.892;9.544;2022-08-16T10:38:32;5.23;;;4.40;;
1467;SDS011;727;48.892;9.544;2022-08-16T10:41:00;6.90;;;5.90;;
1467;SDS011;727;48.892;9.544;2022-08-16T10:43:27;6.47;;;4.30;;
1467;SDS011;727;48.892;9.544;2022-08-16T10:45:54;6.60;;;5.90;;
1467;SDS011;727;48.892;9.544;2022-08-16T10:48:21;7.70;;;4.80;;
1467;SDS011;727;48.892;9.544;2022-08-16T10:50:49;5.90;;;5.40;;
1467;SDS011;727;48.892;9.544;2022-08-16T10:53:16;4.67;;;4.37;;
1467;SDS011;727;48.892;9.544;2022-08-16T10:55:43;6.70;;;4.53;;
1467;SDS011;727;48.892;9.544;2022-08-16T10:58:12;5.90;;;5.00;;
1467;SDS011;727;48.892;9.544;2022-08-16T11:00:41;6.23;;;5.80;;
1467;SDS011;727;48.892;9.544;2022-08-16T11:03:08;5.50;;;5.00;;
1467;SDS011;727;48.892;9.544;2022-08-16T11:05:36;5.10;;;4.70;;
1467;SDS011;727;48.892;9.544;2022-08-16T11:08:07;6.27;;;5.20;;
1467;SDS011;727;48.892;9.544;2022-08-16T11:10:37;6.93;;;4.53;;
1467;SDS011;727;48.892;9.544;2022-08-16T11:13:08;5.93;;;4.63;;
1467;SDS011;727;48.892;9.544;2022-08-16T11:15:37;6.33;;;5.03;;
1467;SDS011;727;48.892;9.544;2022-08-16T11:18:08;7.13;;;5.30;;
1467;SDS011;727;48.892;9.544;2022-08-16T11:20:36;5.43;;;4.93;;
1467;SDS011;727;48.892;9.544;2022-08-16T11:23:03;4.83;;;4.43;;
1467;SDS011;727;48.892;9.544;2022-08-16T11:25:34;6.27;;;4.67;;
1467;SDS011;727;48.892;9.544;2022-08-16T11:28:01;7.30;;;4.60;;
1467;SDS011;727;48.892;9.544;2022-08-16T11:30:29;4.40;;;4.10;;
1467;SDS011;727;48.892;9.544;2022-08-16T11:32:57;5.00;;;4.70;;
1467;SDS011;727;48.892;9.544;2022-08-16T11:35:26;5.00;;;4.60;;
1467;SDS011;727;48.892;9.544;2022-08-16T11:37:56;6.37;;;4.00;;
1467;SDS011;727;48.892;9.544;2022-08-16T11:40:25;4.83;;;4.40;;
1467;SDS011;727;48.892;9.544;2022-08-16T11:42:57;4.20;;;3.90;;
1467;SDS011;727;48.892;9.544;2022-08-16T11:45:25;4.93;;;4.50;;
1467;SDS011;727;48.892;9.544;2022-08-16T11:47:52;5.13;;;4.13;;
1467;SDS011;727;48.892;9.544;2022-08-16T11:50:19;6.07;;;4.70;;
1467;SDS011;727;48.892;9.544;2022-08-16T11:52:48;4.63;;;4.17;;
1467;SDS011;727;48.892;9.544;2022-08-16T11:55:15;5.37;;;4.87;;
1467;SDS011;727;48.892;9.544;2022-08-16T11:57:43;5.13;;;4.30;;
1467;SDS011;727;48.892;9.544;2022-08-16T12:00:13;5.57;;;4.40;;
1467;SDS011;727;48.892;9.544;2022-08-16T12:02:41;4.43;;;4.10;;
1467;SDS011;727;48.892;9.544;2022-08-16T12:05:09;4.23;;;3.77;;
1467;SDS011;727;48.892;9.544;2022-08-16T12:07:39;5.83;;;4.07;;
1467;SDS011;727;48.892;9.544;2022-08-16T12:10:07;4.00;;;3.70;;
1467;SDS011;727;48.892;9.544;2022-08-16T12:12:37;3.90;;;3.67;;
1467;SDS011;727;48.892;9.544;2022-08-16T12:15:04;4.93;;;4.43;;
1467;SDS011;727;48.892;9.544;2022-08-16T12:17:34;3.80;;;3.47;;
1467;SDS011;727;48.892;9.544;2022-08-16T12:20:04;3.97;;;3.67;;
1467;SDS011;727;48.892;9.544;2022-08-16T12:22:33;4.73;;;4.33;;
1467;SDS011;727;48.892;9.544;2022-08-16T12:25:02;4.30;;;3.97;;
1467;SDS011;727;48.892;9.544;2022-08-16T12:27:31;6.97;;;4.30;;
1467;SDS011;727;48.892;9.544;2022-08-16T12:29:59;4.77;;;4.37;;
1467;SDS011;727;48.892;9.544;2022-08-16T12:32:26;4.70;;;4.10;;
1467;SDS011;727;48.892;9.544;2022-08-16T12:34:54;5.07;;;4.57;;
1467;SDS011;727;48.892;9.544;2022-08-16T12:37:22;4.50;;;4.20;;
1467;SDS011;727;48.892;9.544;2022-08-16T12:39:49;5.07;;;4.57;;
1467;SDS011;727;48.892;9.544;2022-08-16T12:42:16;4.67;;;4.37;;
1467;SDS011;727;48.892;9.544;2022-08-16T12:44:44;4.90;;;4.50;;
1467;SDS011;727;48.892;9.544;2022-08-16T12:47:13;4.50;;;4.10;;
1467;SDS011;727;48.892;9.544;2022-08-16T12:49:59;4.93;;;4.53;;
1467;SDS011;727;48.892;9.544;2022-08-16T12:52:26;4.33;;;3.93;;
1467;SDS011;727;48.892;9.544;2022-08-16T12:54:54;8.53;;;4.07;;
1467;SDS011;727;48.892;9.544;2022-08-16T12:57:21;5.50;;;4.60;;
1467;SDS011;727;48.892;9.544;2022-08-16T12:59:49;4.53;;;3.90;;
1467;SDS011;727;48.892;9.544;2022-08-16T13:02:16;7.53;;;4.17;;
1467;SDS011;727;48.892;9.544;2022-08-16T13:04:43;5.30;;;3.83;;
1467;SDS011;727;48.892;9.544;2022-08-16T13:07:12;4.00;;;3.70;;
1467;SDS011;727;48.892;9.544;2022-08-16T13:09:39;4.37;;;4.07;;
1467;SDS011;727;48.892;9.544;2022-08-16T13:12:16;8.23;;;4.13;;
1467;SDS011;727;48.892;9.544;2022-08-16T13:14:47;4.43;;;4.10;;
1467;SDS011;727;48.892;9.544;2022-08-16T13:17:16;6.93;;;4.07;;
1467;SDS011;727;48.892;9.544;2022-08-16T13:19:44;4.33;;;3.93;;
1467;SDS011;727;48.892;9.544;2022-08-16T13:22:13;5.60;;;4.00;;
1467;SDS011;727;48.892;9.544;2022-08-16T13:24:39;4.00;;;3.80;;
1467;SDS011;727;48.892;9.544;2022-08-16T13:27:06;4.63;;;4.33;;
1467;SDS011;727;48.892;9.544;2022-08-16T13:29:33;4.03;;;3.63;;
1467;SDS011;727;48.892;9.544;2022-08-16T13:32:00;4.47;;;4.07;;
1467;SDS011;727;48.892;9.544;2022-08-16T13:34:27;3.83;;;3.53;;
1467;SDS011;727;48.892;9.544;2022-08-16T13:36:54;4.57;;;4.17;;
1467;SDS011;727;48.892;9.544;2022-08-16T13:39:22;5.00;;;4.50;;
1467;SDS011;727;48.892;9.544;2022-08-16T13:41:48;4.83;;;4.30;;
1467;SDS011;727;48.892;9.544;2022-08-16T13:44:15;4.47;;;3.17;;
1467;SDS011;727;48.892;9.544;2022-08-16T13:46:43;3.90;;;3.57;;
1467;SDS011;727;48.892;9.544;2022-08-16T13:49:11;4.43;;;4.13;;
1467;SDS011;727;48.892;9.544;2022-08-16T13:51:38;4.87;;;4.47;;
1467;SDS011;727;48.892;9.544;2022-08-16T13:54:05;7.63;;;4.30;;
1467;SDS011;727;48.892;9.544;2022-08-16T13:56:34;4.90;;;4.50;;
1467;SDS011;727;48.892;9.544;2022-08-16T13:59:02;5.77;;;4.00;;
1467;SDS011;727;48.892;9.544;2022-08-16T14:01:29;4.60;;;4.20;;
1467;SDS011;727;48.892;9.544;2022-08-16T14:03:56;4.10;;;3.70;;
1467;SDS011;727;48.892;9.544;2022-08-16T14:06:22;4.73;;;4.40;;
1467;SDS011;727;48.892;9.544;2022-08-16T14:08:49;4.17;;;3.87;;
1467;SDS011;727;48.892;9.544;2022-08-16T14:11:16;4.27;;;3.83;;
1467;SDS011;727;48.892;9.544;2022-08-16T14:13:44;4.33;;;3.93;;
1467;SDS011;727;48.892;9.544;2022-08-16T14:16:10;4.27;;;3.70;;
1467;SDS011;727;48.892;9.544;2022-08-16T14:18:38;5.43;;;4.13;;
1467;SDS011;727;48.892;9.544;2022-08-16T14:21:05;4.57;;;4.17;;
1467;SDS011;727;48.892;9.544;2022-08-16T14:23:32;4.30;;;3.90;;
1467;SDS011;727;48.892;9.544;2022-08-16T14:25:59;3.93;;;3.20;;
1467;SDS011;727;48.892;9.544;2022-08-16T14:28:26;4.37;;;4.00;;
1467;SDS011;727;48.892;9.544;2022-08-16T14:30:54;4.30;;;3.63;;
1467;SDS011;727;48.892;9.544;2022-08-16T14:33:21;4.00;;;3.70;;
1467;SDS011;727;48.892;9.544;2022-08-16T14:35:49;4.57;;;4.27;;
1467;SDS011;727;48.892;9.544;2022-08-16T14:38:15;4.30;;;4.00;;
1467;SDS011;727;48.892;9.544;2022-08-16T14:40:43;4.80;;;4.40;;
1467;SDS011;727;48.892;9.544;2022-08-16T14:43:11;4.50;;;3.53;;
1467;SDS011;727;48.892;9.544;2022-08-16T14:45:38;5.13;;;4.63;;
1467;SDS011;727;48.892;9.544;2022-08-16T14:48:06;7.87;;;4.50;;
1467;SDS011;727;48.892;9.544;2022-08-16T14:50:33;4.20;;;3.80;;
1467;SDS011;727;48.892;9.544;2022-08-16T14:53:03;8.50;;;4.40;;
1467;SDS011;727;48.892;9.544;2022-08-16T14:55:32;4.20;;;3.90;;
1467;SDS011;727;48.892;9.544;2022-08-16T14:58:00;4.23;;;3.83;;
1467;SDS011;727;48.892;9.544;2022-08-16T15:00:28;4.97;;;4.50;;
1467;SDS011;727;48.892;9.544;2022-08-16T15:02:57;6.53;;;4.03;;
1467;SDS011;727;48.892;9.544;2022-08-16T15:05:27;4.20;;;3.80;;
1467;SDS011;727;48.892;9.544;2022-08-16T15:07:54;4.23;;;3.90;;
1467;SDS011;727;48.892;9.544;2022-08-16T15:10:25;4.83;;;3.60;;
1467;SDS011;727;48.892;9.544;2022-08-16T15:12:52;4.23;;;3.90;;
1467;SDS011;727;48.892;9.544;2022-08-16T15:15:21;4.20;;;3.80;;
1467;SDS011;727;48.892;9.544;2022-08-16T15:17:49;4.83;;;4.00;;
1467;SDS011;727;48.892;9.544;2022-08-16T15:20:17;3.70;;;3.50;;
1467;SDS011;727;48.892;9.544;2022-08-16T15:22:47;4.70;;;4.20;;
1467;SDS011;727;48.892;9.544;2022-08-16T15:25:16;3.77;;;3.57;;
1467;SDS011;727;48.892;9.544;2022-08-16T15:27:44;4.63;;;4.27;;
1467;SDS011;727;48.892;9.544;2022-08-16T15:30:14;5.40;;;3.70;;
1467;SDS011;727;48.892;9.544;2022-08-16T15:32:42;3.97;;;3.67;;